Time;durP1;ratioP1;P1;durP2;ratioP2;P2;SDS_P1;SDS_P2;PMS_P1;PMS_P2;Temp;Humidity;BMP_temperature;BMP_pressure;BME280_temperature;BME280_humidity;BME280_pressure;Samples;Min_cycle;Max_cycle;Signal;HPM_P1;HPM_P2
2021/06/20 00:00:16;;;;;;;14.25;9.43;;;;;;;22.92;62.92;95690.56;5081532;28;20047;-74
2021/06/20 00:02:44;;;;;;;13.43;9.20;;;;;;;23.07;61.24;95693.78;5098043;28;20063;-73
2021/06/20 00:05:13;;;;;;;17.23;9.55;;;;;;;22.99;61.28;95687.41;5117565;28;20396;-73
2021/06/20 00:07:39;;;;;;;15.60;9.65;;;;;;;22.87;61.85;95695.31;5118432;28;20123;-73
2021/06/20 00:10:08;;;;;;;17.23;10.60;;;;;;;22.70;63.22;95697.00;5133795;28;20032;-73
2021/06/20 00:12:36;;;;;;;22.33;13.25;;;;;;;22.56;64.21;95691.13;5125844;28;20043;-72
2021/06/20 00:15:05;;;;;;;19.15;11.98;;;;;;;22.48;63.86;95689.25;5120207;28;20047;-72
2021/06/20 00:17:31;;;;;;;15.00;10.23;;;;;;;22.48;63.40;95689.25;5118544;28;20059;-73
2021/06/20 00:19:57;;;;;;;17.70;10.75;;;;;;;22.62;63.96;95689.81;5118430;28;20043;-73
2021/06/20 00:22:22;;;;;;;18.48;11.90;;;;;;;22.50;64.71;95682.50;5118832;28;20040;-72
2021/06/20 00:24:48;;;;;;;18.35;12.20;;;;;;;22.45;65.23;95682.66;5118726;28;20119;-73
2021/06/20 00:27:14;;;;;;;15.20;10.18;;;;;;;22.40;64.89;95682.06;5117088;28;20424;-73
2021/06/20 00:29:39;;;;;;;16.17;10.85;;;;;;;22.34;65.47;95676.13;5098623;28;20395;-74
2021/06/20 00:32:07;;;;;;;17.38;11.15;;;;;;;22.27;65.97;95673.91;5117604;28;20047;-73
2021/06/20 00:34:33;;;;;;;;;;;;;;;22.29;66.03;95664.81;5100195;28;20059;-73
2021/06/20 00:37:01;;;;;;;19.25;11.00;;;;;;;22.19;65.23;95661.38;5099479;28;19919;-73
2021/06/20 00:39:29;;;;;;;21.45;11.13;;;;;;;22.21;66.33;95653.78;5118596;28;20047;-72
2021/06/20 00:41:55;;;;;;;15.82;10.20;;;;;;;22.49;65.14;95650.63;5116864;28;20066;-73
2021/06/20 00:44:23;;;;;;;15.55;10.80;;;;;;;22.35;65.81;95647.44;5116968;28;20554;-74
2021/06/20 00:46:48;;;;;;;17.58;11.65;;;;;;;22.27;65.68;95641.78;5117700;28;20046;-74
2021/06/20 00:49:17;;;;;;;19.75;11.57;;;;;;;22.13;65.95;95629.75;5116888;28;20494;-74
2021/06/20 00:51:42;;;;;;;17.48;11.30;;;;;;;22.09;66.18;95637.59;5116691;28;20054;-73
2021/06/20 00:54:08;;;;;;;14.98;9.63;;;;;;;22.08;66.09;95641.38;5116851;28;20047;-74
2021/06/20 00:56:36;;;;;;;14.55;10.43;;;;;;;22.25;65.40;95660.06;5118710;28;20611;-74
2021/06/20 00:59:06;;;;;;;20.25;12.07;;;;;;;22.30;65.51;95661.00;5098538;28;20027;-73
2021/06/20 01:01:33;;;;;;;17.85;11.13;;;;;;;22.39;64.80;95686.66;5117266;28;20055;-73
2021/06/20 01:04:01;;;;;;;14.30;9.63;;;;;;;22.25;65.00;95665.44;5117731;28;20044;-72
2021/06/20 01:06:32;;;;;;;16.92;9.50;;;;;;;22.44;63.78;95664.22;5110944;28;20364;-71
2021/06/20 01:08:59;;;;;;;16.50;9.50;;;;;;;22.29;64.28;95662.13;5114673;28;20393;-73
2021/06/20 01:11:25;;;;;;;14.98;10.00;;;;;;;22.19;63.98;95658.69;5097476;28;20044;-73
2021/06/20 01:13:50;;;;;;;21.08;11.13;;;;;;;22.02;65.35;95672.13;5115660;28;20058;-73
2021/06/20 01:16:19;;;;;;;15.77;10.13;;;;;;;21.99;65.61;95664.75;5104244;28;20047;-73
2021/06/20 01:18:47;;;;;;;14.80;10.02;;;;;;;22.02;65.53;95669.47;5116226;28;20059;-73
2021/06/20 01:21:13;;;;;;;14.45;10.32;;;;;;;22.08;65.19;95664.72;5098037;28;20108;-73
2021/06/20 01:23:40;;;;;;;14.65;10.02;;;;;;;21.99;65.41;95662.06;5133713;22;20035;-70
2021/06/20 01:26:05;;;;;;;15.73;10.25;;;;;;;21.80;66.44;95654.44;5090378;28;20047;-69
2021/06/20 01:28:41;;;;;;;16.17;9.73;;;;;;;21.94;65.61;95667.59;5091323;28;20043;-71
2021/06/20 01:31:11;;;;;;;14.30;9.05;;;;;;;22.15;64.94;95687.22;5072000;28;20040;-70
2021/06/20 01:33:37;;;;;;;13.90;9.85;;;;;;;22.00;65.28;95668.97;5090268;28;20037;-71
2021/06/20 01:36:04;;;;;;;15.13;9.68;;;;;;;21.99;64.91;95672.78;5090507;28;20037;-70
2021/06/20 01:38:29;;;;;;;15.48;8.95;;;;;;;21.75;65.81;95668.78;5072652;28;20134;-70
2021/06/20 01:40:56;;;;;;;16.88;9.73;;;;;;;21.91;65.73;95693.13;5090445;28;20403;-70
2021/06/20 01:43:22;;;;;;;14.63;9.88;;;;;;;21.94;65.18;95687.13;5090624;28;20380;-70
2021/06/20 01:45:48;;;;;;;16.90;10.18;;;;;;;21.91;64.53;95678.97;5090188;28;20051;-70
2021/06/20 01:48:13;;;;;;;16.50;10.20;;;;;;;21.89;65.07;95694.53;5090255;28;20093;-71
2021/06/20 01:50:41;;;;;;;17.33;10.00;;;;;;;21.94;64.75;95694.38;5089953;28;20040;-70
2021/06/20 01:53:10;;;;;;;14.15;9.30;;;;;;;21.86;64.36;95679.13;5071987;28;20199;-70
2021/06/20 01:55:37;;;;;;;16.67;9.13;;;;;;;21.92;64.91;95677.84;5090155;28;20052;-71
2021/06/20 01:58:06;;;;;;;15.32;9.75;;;;;;;21.68;66.12;95671.13;5071988;28;20119;-71
2021/06/20 02:00:32;;;;;;;15.35;9.32;;;;;;;21.65;66.16;95690.53;5071687;28;20126;-71
2021/06/20 02:03:05;;;;;;;13.80;9.27;;;;;;;21.62;65.87;95685.00;5090057;28;20067;-71
2021/06/20 02:05:30;;;;;;;14.43;9.52;;;;;;;21.59;65.64;95685.66;5090019;28;20039;-71
2021/06/20 02:07:58;;;;;;;13.95;10.30;;;;;;;21.66;65.56;95699.34;5090166;28;20387;-71
2021/06/20 02:10:24;;;;;;;16.25;10.13;;;;;;;21.69;65.68;95696.03;5089566;28;20071;-70
2021/06/20 02:12:51;;;;;;;13.90;9.40;;;;;;;21.60;65.86;95695.25;5091049;28;20059;-71
2021/06/20 02:15:19;;;;;;;15.13;9.75;;;;;;;21.55;66.16;95706.91;5092606;28;20036;-71
2021/06/20 02:17:47;;;;;;;19.13;10.50;;;;;;;21.47;66.58;95710.38;5076386;28;20040;-71
2021/06/20 02:20:15;;;;;;;19.42;10.60;;;;;;;21.51;66.47;95721.25;5094085;28;20048;-71
2021/06/20 02:22:42;;;;;;;14.10;10.15;;;;;;;21.45;66.59;95723.31;5093994;28;20040;-70
2021/06/20 02:25:11;;;;;;;16.00;10.50;;;;;;;21.41;66.65;95738.41;5099309;28;20054;-71
2021/06/20 02:27:39;;;;;;;17.95;9.98;;;;;;;21.43;66.67;95737.00;5095226;28;20050;-71
2021/06/20 02:30:07;;;;;;;17.38;9.35;;;;;;;21.47;66.35;95739.81;5094551;28;20044;-70
2021/06/20 02:32:35;;;;;;;18.95;10.73;;;;;;;21.29;66.89;95731.00;5087143;28;20088;-71
2021/06/20 02:35:00;;;;;;;;;;;;;;;21.33;66.91;95731.97;5108428;28;20091;-69
2021/06/20 02:37:27;;;;;;;20.40;9.32;;;;;;;21.23;66.81;95735.72;5089583;28;19919;-70
2021/06/20 02:39:52;;;;;;;17.15;9.93;;;;;;;21.25;67.20;95730.03;5110854;28;20031;-69
2021/06/20 02:42:19;;;;;;;14.30;8.95;;;;;;;21.18;67.34;95738.53;5111402;28;20048;-70
2021/06/20 02:44:46;;;;;;;18.35;10.13;;;;;;;21.15;67.70;95736.50;5085829;28;20093;-70
2021/06/20 02:47:12;;;;;;;15.60;9.63;;;;;;;21.21;67.36;95743.28;5102754;28;20044;-69
2021/06/20 02:49:40;;;;;;;14.73;9.73;;;;;;;21.19;67.71;95747.34;5102078;28;20052;-70
2021/06/20 02:52:08;;;;;;;13.93;9.82;;;;;;;21.31;66.43;95752.09;5106245;28;20094;-70
2021/06/20 02:54:33;;;;;;;;;;;;;;;21.47;65.25;95753.19;5110825;28;20075;-70
2021/06/20 02:56:59;;;;;;;16.00;9.27;;;;;;;21.44;65.22;95761.88;5108362;28;19920;-71
2021/06/20 02:59:25;;;;;;;14.60;9.40;;;;;;;21.38;65.43;95760.47;5093930;28;20122;-71
2021/06/20 03:01:51;;;;;;;13.90;9.20;;;;;;;21.59;64.44;95765.97;5099822;28;20036;-69
2021/06/20 03:04:17;;;;;;;16.23;8.52;;;;;;;21.55;64.53;95770.38;5085370;28;20212;-70
2021/06/20 03:06:44;;;;;;;15.13;8.43;;;;;;;21.54;64.25;95769.56;5098121;28;20350;-70
2021/06/20 03:09:10;;;;;;;16.38;8.93;;;;;;;21.60;64.02;95764.84;5096121;28;20066;-70
2021/06/20 03:11:41;;;;;;;18.70;9.00;;;;;;;21.52;64.22;95753.03;5097010;28;20062;-70
2021/06/20 03:14:09;;;;;;;18.52;8.50;;;;;;;21.53;64.63;95757.31;5095795;28;20407;-70
2021/06/20 03:16:35;;;;;;;15.68;8.15;;;;;;;21.60;64.40;95764.84;5095554;28;20036;-70
2021/06/20 03:19:01;;;;;;;14.50;8.20;;;;;;;21.55;64.35;95765.78;5096896;28;20046;-70
2021/06/20 03:21:27;;;;;;;21.55;8.70;;;;;;;21.64;64.20;95769.25;5094642;28;20495;-71
2021/06/20 03:23:53;;;;;;;17.33;8.02;;;;;;;21.74;63.75;95774.28;5092783;28;20530;-70
2021/06/20 03:26:19;;;;;;;20.97;7.80;;;;;;;21.74;63.84;95774.28;5074678;28;20073;-70
2021/06/20 03:28:45;;;;;;;17.17;7.57;;;;;;;21.85;63.45;95771.25;5106811;28;20505;-70
2021/06/20 03:31:10;;;;;;;18.13;7.53;;;;;;;21.99;62.80;95775.31;5092230;28;20066;-70
2021/06/20 03:33:36;;;;;;;16.30;7.90;;;;;;;21.96;62.94;95780.56;5093200;28;20040;-70
2021/06/20 03:36:02;;;;;;;20.15;7.88;;;;;;;22.06;62.68;95784.75;5092311;28;20382;-70
2021/06/20 03:38:29;;;;;;;17.05;7.43;;;;;;;22.07;62.77;95787.13;5092481;28;20109;-70
2021/06/20 03:40:56;;;;;;;19.55;8.48;;;;;;;22.15;62.68;95790.91;5091963;28;20500;-70
2021/06/20 03:43:21;;;;;;;22.73;7.95;;;;;;;22.26;62.01;95790.25;5092663;28;20093;-71
2021/06/20 03:45:49;;;;;;;16.83;7.60;;;;;;;22.39;61.61;95782.34;5092445;28;20044;-70
2021/06/20 03:48:15;;;;;;;23.67;7.53;;;;;;;22.56;61.24;95787.63;5092292;28;20491;-71
2021/06/20 03:50:41;;;;;;;21.70;7.97;;;;;;;22.63;60.61;95793.25;5073991;28;20044;-71
2021/06/20 03:53:11;;;;;;;19.48;7.20;;;;;;;22.67;60.46;95778.09;5092178;28;20040;-70
2021/06/20 03:55:37;;;;;;;21.42;6.32;;;;;;;22.85;59.29;95778.00;5092358;28;20111;-69
2021/06/20 03:58:06;;;;;;;27.70;7.20;;;;;;;22.97;58.96;95770.06;5092371;28;20113;-69
2021/06/20 04:00:34;;;;;;;20.48;6.60;;;;;;;23.16;57.85;95772.31;5074378;28;20547;-70
2021/06/20 04:03:00;;;;;;;17.20;6.10;;;;;;;23.37;56.40;95783.06;5092653;28;20063;-70
2021/06/20 04:05:28;;;;;;;19.70;6.05;;;;;;;23.44;55.76;95772.56;5093042;28;20480;-70
2021/06/20 04:07:53;;;;;;;21.15;6.18;;;;;;;23.50;55.26;95771.25;5092292;28;20122;-69
2021/06/20 04:10:19;;;;;;;24.00;5.60;;;;;;;23.73;54.13;95753.72;5091830;28;20123;-70
2021/06/20 04:12:45;;;;;;;20.67;5.38;;;;;;;23.85;53.74;95762.94;5073517;28;20040;-71
2021/06/20 04:15:14;;;;;;;18.08;5.07;;;;;;;23.87;53.46;95752.63;5091640;28;20094;-70
2021/06/20 04:17:42;;;;;;;56.40;9.32;;;;;;;23.99;53.11;95755.34;5091433;28;20060;-70
2021/06/20 04:20:11;;;;;;;61.65;11.05;;;;;;;23.99;52.73;95761.50;5073032;28;20557;-70
2021/06/20 04:22:38;;;;;;;36.85;6.85;;;;;;;24.02;52.35;95781.56;5091517;28;20039;-70
2021/06/20 04:25:07;;;;;;;23.35;5.05;;;;;;;24.09;52.24;95789.84;5091484;28;20047;-70
2021/06/20 04:27:35;;;;;;;21.35;4.75;;;;;;;24.18;51.54;95785.16;5091838;28;20089;-70
2021/06/20 04:30:00;;;;;;;26.25;5.72;;;;;;;24.22;50.84;95780.72;5091531;28;20040;-70
2021/06/20 04:32:27;;;;;;;25.92;5.28;;;;;;;24.21;51.17;95779.13;5093255;28;20329;-70
2021/06/20 04:34:53;;;;;;;24.00;5.28;;;;;;;24.17;51.43;95766.69;5076571;28;20048;-70
2021/06/20 04:37:19;;;;;;;24.55;5.45;;;;;;;24.09;51.50;95776.41;5093685;28;20040;-70
2021/06/20 04:39:44;;;;;;;25.10;5.03;;;;;;;23.95;52.39;95773.25;5091606;28;20063;-70
2021/06/20 04:42:11;;;;;;;25.30;5.43;;;;;;;23.98;51.95;95792.16;5074634;28;20089;-70
2021/06/20 04:44:42;;;;;;;25.13;5.65;;;;;;;23.80;52.57;95804.97;5091699;28;20110;-70
2021/06/20 04:47:08;;;;;;;25.23;4.85;;;;;;;23.65;53.42;95827.06;5091451;28;20414;-70
2021/06/20 04:49:35;;;;;;;20.52;4.60;;;;;;;23.55;54.15;95835.50;5073036;28;20139;-69
2021/06/20 04:52:04;;;;;;;24.75;5.70;;;;;;;23.36;59.03;95852.06;5090749;28;20051;-71
2021/06/20 04:54:29;;;;;;;22.67;4.93;;;;;;;21.15;73.71;95814.06;5090986;28;20093;-67
2021/06/20 04:56:55;;;;;;;16.02;2.58;;;;;;;19.57;75.94;95849.38;5091151;28;20040;-70
2021/06/20 04:59:21;;;;;;;17.23;3.83;;;;;;;18.98;81.00;95894.59;5073167;28;20470;-67
2021/06/20 05:01:47;;;;;;;28.10;5.20;;;;;;;18.65;85.77;95861.09;5091213;28;20036;-68
2021/06/20 05:04:12;;;;;;;23.70;5.82;;;;;;;18.97;87.00;95852.25;5090865;28;20087;-69
2021/06/20 05:06:40;;;;;;;28.58;7.90;;;;;;;18.91;88.41;95870.22;5091026;28;20503;-69
2021/06/20 05:09:05;;;;;;;;;;;;;;;18.84;89.59;95880.50;5091744;28;20561;-69
2021/06/20 05:11:31;;;;;;;29.20;7.15;;;;;;;18.95;89.75;95871.22;5091258;28;19920;-70
2021/06/20 05:13:57;;;;;;;26.85;7.80;;;;;;;18.95;89.86;95865.88;5101315;28;20071;-69
2021/06/20 05:16:23;;;;;;;28.23;8.48;;;;;;;19.05;90.64;95880.88;5095550;28;20487;-69
2021/06/20 05:18:49;;;;;;;25.85;8.07;;;;;;;19.30;90.47;95898.22;5077887;28;20040;-68
2021/06/20 05:21:15;;;;;;;26.60;7.43;;;;;;;19.70;88.35;95896.63;5091142;28;20040;-69
2021/06/20 05:23:44;;;;;;;27.55;8.35;;;;;;;19.71;88.69;95895.50;5090789;28;20127;-69
2021/06/20 05:26:10;;;;;;;26.42;8.70;;;;;;;19.75;87.99;95899.16;5090901;28;20078;-69
2021/06/20 05:28:35;;;;;;;27.35;9.38;;;;;;;19.63;89.07;95891.66;5090947;28;20345;-70
2021/06/20 05:31:03;;;;;;;26.27;9.02;;;;;;;19.56;88.52;95904.59;5090252;28;20036;-69
2021/06/20 05:33:29;;;;;;;;;;;;;;;19.51;89.19;95910.06;5091268;28;20040;-68
2021/06/20 05:35:55;;;;;;;31.88;9.43;;;;;;;19.43;90.05;95907.31;5090889;28;19961;-69
2021/06/20 05:38:23;;;;;;;34.58;10.02;;;;;;;19.32;89.82;95917.41;5090700;28;20048;-69
2021/06/20 05:40:53;;;;;;;27.25;9.20;;;;;;;19.32;89.65;95923.53;5090548;28;20450;-68
2021/06/20 05:43:19;;;;;;;22.02;9.18;;;;;;;19.24;89.26;95936.75;5090965;28;20051;-69
2021/06/20 05:45:47;;;;;;;25.48;9.90;;;;;;;19.17;90.64;95928.38;5072508;28;20495;-69
2021/06/20 05:48:12;;;;;;;27.40;9.02;;;;;;;19.26;90.17;95932.69;5090865;28;20556;-69
2021/06/20 05:50:38;;;;;;;20.05;9.43;;;;;;;19.22;90.13;95942.41;5072561;28;20044;-69
2021/06/20 05:53:06;;;;;;;22.90;8.82;;;;;;;19.14;90.37;95948.41;5093561;28;20131;-70
2021/06/20 05:55:31;;;;;;;;;;;;;;;19.23;90.18;95956.53;5095028;28;20376;-69
2021/06/20 05:57:59;;;;;;;17.63;9.15;;;;;;;19.39;89.18;95957.78;5076580;28;19966;-68
2021/06/20 06:00:24;;;;;;;21.50;8.57;;;;;;;19.20;89.21;95967.75;5094830;28;20064;-69
2021/06/20 06:02:50;;;;;;;24.38;8.75;;;;;;;19.21;90.32;95982.66;5076424;28;20360;-69
2021/06/20 06:05:15;;;;;;;21.13;9.20;;;;;;;19.21;89.15;95983.50;5094501;28;20105;-69
2021/06/20 06:07:41;;;;;;;22.00;9.98;;;;;;;19.05;90.61;95988.31;5095066;28;20040;-70
2021/06/20 06:10:08;;;;;;;22.08;9.60;;;;;;;19.12;91.25;95980.72;5077468;28;20060;-68
2021/06/20 06:12:34;;;;;;;23.00;9.82;;;;;;;19.11;91.03;95987.13;5095293;28;20090;-68
2021/06/20 06:15:02;;;;;;;23.10;9.82;;;;;;;18.98;91.37;95993.22;5094597;28;20048;-69
2021/06/20 06:17:27;;;;;;;21.90;9.85;;;;;;;18.95;91.41;95993.81;5094484;28;20101;-68
2021/06/20 06:19:54;;;;;;;19.98;9.10;;;;;;;18.92;91.55;95978.41;5094280;28;20040;-69
2021/06/20 06:22:21;;;;;;;22.38;10.35;;;;;;;19.05;92.29;95976.84;5094146;28;20048;-69
2021/06/20 06:24:47;;;;;;;26.27;10.07;;;;;;;18.93;92.38;95979.97;5093648;28;20052;-68
2021/06/20 06:27:14;;;;;;;21.45;10.32;;;;;;;18.99;92.27;95992.13;5093931;28;20518;-68
2021/06/20 06:29:40;;;;;;;24.67;10.43;;;;;;;19.01;92.48;95984.66;5093590;28;20123;-68
2021/06/20 06:32:08;;;;;;;26.27;10.02;;;;;;;19.00;92.45;95976.97;5094248;28;20120;-69
2021/06/20 06:34:35;;;;;;;22.17;9.05;;;;;;;18.92;92.26;95975.75;5093978;28;20086;-68
2021/06/20 06:37:03;;;;;;;25.27;8.82;;;;;;;18.88;92.79;95980.88;5093633;28;20402;-68
2021/06/20 06:39:30;;;;;;;25.13;10.48;;;;;;;18.96;93.56;95984.75;5093635;28;20119;-68
2021/06/20 06:41:58;;;;;;;26.20;10.57;;;;;;;18.91;94.10;95982.16;5093587;28;20039;-67
2021/06/20 06:44:24;;;;;;;26.33;10.30;;;;;;;18.94;93.69;95970.13;5094624;28;20039;-68
2021/06/20 06:46:50;;;;;;;26.65;9.73;;;;;;;18.83;93.38;95964.16;5095206;28;20036;-68
2021/06/20 06:49:17;;;;;;;26.13;8.35;;;;;;;18.84;92.88;95949.78;5077488;28;20085;-68
2021/06/20 06:51:43;;;;;;;26.45;10.27;;;;;;;19.07;93.32;95942.69;5096579;28;20044;-68
2021/06/20 06:54:09;;;;;;;24.95;8.90;;;;;;;19.16;92.16;95940.94;5098040;28;20058;-68
2021/06/20 06:56:35;;;;;;;26.85;10.05;;;;;;;19.10;93.21;95931.41;5097259;28;20069;-66
2021/06/20 06:59:02;;;;;;;22.85;8.75;;;;;;;19.19;92.02;95923.53;5097061;28;20068;-69
2021/06/20 07:01:29;;;;;;;29.63;9.75;;;;;;;19.30;92.01;95915.03;5094609;28;20123;-68
2021/06/20 07:03:55;;;;;;;;;;;;;;;19.65;91.39;95920.75;5094522;28;20044;-68
2021/06/20 07:06:22;;;;;;;24.80;9.35;;;;;;;19.75;91.22;95935.72;5094053;28;19947;-69
2021/06/20 07:08:48;;;;;;;26.85;9.43;;;;;;;19.63;91.45;95931.69;5093845;28;20044;-67
2021/06/20 07:11:14;;;;;;;22.67;9.80;;;;;;;19.67;92.54;95930.00;5094148;28;20454;-68
2021/06/20 07:13:40;;;;;;;27.67;10.02;;;;;;;19.59;92.59;95917.41;5094492;28;20040;-68
2021/06/20 07:16:06;;;;;;;26.27;10.10;;;;;;;19.69;92.56;95920.91;5094333;28;20067;-68
2021/06/20 07:18:32;;;;;;;26.23;9.82;;;;;;;19.98;92.50;95918.66;5094627;28;20043;-68
2021/06/20 07:21:02;;;;;;;23.15;9.50;;;;;;;20.01;91.68;95918.03;5094057;28;20039;-68
2021/06/20 07:23:29;;;;;;;25.40;10.30;;;;;;;20.09;91.85;95913.88;5093823;28;20036;-67
2021/06/20 07:25:57;;;;;;;22.25;9.23;;;;;;;20.01;91.56;95928.72;5134573;22;20043;-70
2021/06/20 07:28:23;;;;;;;25.08;10.05;;;;;;;20.13;92.45;95937.00;5098250;28;20134;-71
2021/06/20 07:30:49;;;;;;;26.50;10.25;;;;;;;20.13;91.99;95936.22;5118044;28;20130;-71
2021/06/20 07:33:15;;;;;;;22.63;9.23;;;;;;;20.16;91.00;95936.38;5117145;28;20044;-71
2021/06/20 07:35:40;;;;;;;27.02;9.63;;;;;;;20.22;91.02;95933.59;5116780;28;20043;-71
2021/06/20 07:38:06;;;;;;;21.08;9.90;;;;;;;20.26;91.03;95942.56;5117747;28;20084;-71
2021/06/20 07:40:33;;;;;;;27.48;9.02;;;;;;;20.24;89.79;95948.22;5117071;28;20043;-70
2021/06/20 07:42:59;;;;;;;21.75;9.00;;;;;;;20.25;89.95;95943.69;5063740;28;20055;-69
2021/06/20 07:45:25;;;;;;;26.48;10.45;;;;;;;20.24;91.09;95936.75;5116369;28;20039;-70
2021/06/20 07:47:52;;;;;;;26.67;10.50;;;;;;;20.37;91.29;95928.66;5116307;28;20127;-71
2021/06/20 07:50:19;;;;;;;25.08;9.55;;;;;;;20.50;90.96;95929.72;5116384;28;20031;-70
2021/06/20 07:52:45;;;;;;;24.00;9.55;;;;;;;20.68;90.16;95927.94;5116547;28;20039;-70
2021/06/20 07:55:12;;;;;;;24.45;9.32;;;;;;;21.17;89.41;95932.22;5116055;28;20047;-70
2021/06/20 07:57:39;;;;;;;24.98;9.43;;;;;;;21.52;87.73;95926.97;5117410;28;20054;-70
2021/06/20 08:00:08;;;;;;;19.60;9.73;;;;;;;21.45;86.61;95919.41;5116690;28;20043;-70
2021/06/20 08:02:34;;;;;;;24.48;9.85;;;;;;;21.64;87.38;95916.47;5116258;28;20063;-70
2021/06/20 08:05:00;;;;;;;23.02;10.02;;;;;;;21.54;87.88;95926.69;5116418;28;20046;-70
2021/06/20 08:07:25;;;;;;;27.33;9.98;;;;;;;21.78;87.67;95920.88;5116505;28;20052;-70
2021/06/20 08:09:51;;;;;;;21.25;8.65;;;;;;;21.84;86.86;95922.31;5117123;28;20566;-70
2021/06/20 08:12:17;;;;;;;23.23;9.45;;;;;;;21.84;85.78;95924.97;5115825;28;20406;-70
2021/06/20 08:14:43;;;;;;;26.42;9.85;;;;;;;21.69;85.09;95935.06;5096251;28;20440;-69
2021/06/20 08:17:10;;;;;;;25.33;9.20;;;;;;;21.56;85.21;95932.50;5116156;28;20058;-70
2021/06/20 08:19:36;;;;;;;28.08;9.30;;;;;;;21.54;85.68;95918.66;5115703;28;20136;-70
2021/06/20 08:22:04;;;;;;;21.60;8.32;;;;;;;21.55;84.57;95917.56;5098112;28;20036;-70
2021/06/20 08:24:32;;;;;;;24.73;8.95;;;;;;;21.58;84.75;95925.75;5116670;28;20043;-70
2021/06/20 08:27:00;;;;;;;24.77;8.48;;;;;;;21.60;82.80;95923.56;5116593;28;20044;-69
2021/06/20 08:29:25;;;;;;;24.77;8.63;;;;;;;21.40;85.14;95930.28;5097392;28;20050;-70
2021/06/20 08:31:53;;;;;;;22.05;8.93;;;;;;;21.59;83.87;95927.34;5115964;28;20039;-70
2021/06/20 08:34:19;;;;;;;23.65;8.82;;;;;;;21.60;83.45;95928.13;5097475;28;20097;-71
2021/06/20 08:36:44;;;;;;;21.88;8.35;;;;;;;21.65;84.11;95920.72;5116177;28;20043;-71
2021/06/20 08:39:10;;;;;;;21.83;8.07;;;;;;;21.83;82.52;95916.16;5114541;28;20579;-71
2021/06/20 08:41:42;;;;;;;24.98;8.65;;;;;;;21.92;81.64;95922.31;5096832;28;20039;-71
2021/06/20 08:44:16;;;;;;;24.90;8.00;;;;;;;22.46;79.56;95911.25;5097066;28;20101;-70
2021/06/20 08:46:42;;;;;;;27.02;7.72;;;;;;;22.84;79.30;95910.53;5114981;28;20091;-70
2021/06/20 08:49:11;;;;;;;19.92;7.60;;;;;;;22.97;77.53;95899.59;5115588;28;20063;-70
2021/06/20 08:51:37;;;;;;;23.23;7.35;;;;;;;23.22;76.66;95903.28;5114791;28;20028;-71
2021/06/20 08:54:04;;;;;;;21.85;7.32;;;;;;;23.26;75.43;95901.53;5122759;28;20067;-70
2021/06/20 08:56:29;;;;;;;21.92;6.97;;;;;;;23.85;74.14;95905.28;5110375;28;20054;-71
2021/06/20 08:58:58;;;;;;;24.08;7.25;;;;;;;23.54;74.96;95903.72;5118662;28;20119;-72
2021/06/20 09:01:27;;;;;;;26.95;7.85;;;;;;;23.63;75.13;95904.50;5116545;28;20040;-72
2021/06/20 09:03:55;;;;;;;29.38;7.68;;;;;;;23.23;74.75;95898.69;5117991;28;20088;-71
2021/06/20 09:06:25;;;;;;;22.60;7.47;;;;;;;23.41;74.55;95885.94;5115975;28;20050;-71
2021/06/20 09:08:52;;;;;;;24.15;6.75;;;;;;;23.66;73.09;95876.19;5115186;28;20131;-71
2021/06/20 09:11:23;;;;;;;21.10;7.03;;;;;;;23.83;71.71;95865.31;5101695;28;20273;-71
2021/06/20 09:13:49;;;;;;;19.65;6.40;;;;;;;24.03;68.18;95861.03;5117646;28;20061;-72
2021/06/20 09:16:20;;;;;;;20.30;6.38;;;;;;;23.75;69.94;95863.50;5097546;28;20047;-72
2021/06/20 09:18:50;;;;;;;17.40;6.18;;;;;;;23.81;70.40;95862.16;5115353;28;20460;-71
2021/06/20 09:21:16;;;;;;;21.02;6.13;;;;;;;23.89;69.76;95868.56;5115531;28;20159;-71
2021/06/20 09:23:43;;;;;;;21.50;6.40;;;;;;;24.06;70.32;95868.44;5115392;28;20450;-71
2021/06/20 09:26:09;;;;;;;21.60;6.85;;;;;;;24.24;69.83;95867.16;5117399;28;20073;-71
2021/06/20 09:28:36;;;;;;;19.35;7.10;;;;;;;24.43;67.95;95863.19;5120732;28;20040;-70
2021/06/20 09:31:07;;;;;;;25.88;7.05;;;;;;;24.62;68.48;95863.47;5120308;28;20036;-71
2021/06/20 09:33:34;;;;;;;18.08;6.18;;;;;;;24.63;66.91;95862.34;5119783;28;20099;-73
2021/06/20 09:36:00;;;;;;;;;;;;;;;25.50;64.68;95861.22;5119946;28;20499;-71
2021/06/20 09:38:28;;;;;;;22.90;6.93;;;;;;;25.24;65.10;95861.59;5120626;28;19916;-71
2021/06/20 09:41:02;;;;;;;20.08;6.57;;;;;;;24.76;66.35;95860.47;5120081;28;20046;-73
2021/06/20 09:43:31;;;;;;;19.58;6.53;;;;;;;25.01;67.00;95859.31;5120440;28;20336;-72
2021/06/20 09:45:57;;;;;;;22.50;6.45;;;;;;;25.06;66.15;95859.13;5119486;28;20112;-72
2021/06/20 09:48:28;;;;;;;24.17;6.57;;;;;;;24.66;66.27;95863.59;5119637;28;20067;-72
2021/06/20 09:50:54;;;;;;;19.38;6.20;;;;;;;24.78;66.38;95867.06;5100148;28;20043;-72
2021/06/20 09:53:31;;;;;;;19.30;5.88;;;;;;;24.93;65.54;95865.63;5119292;28;20047;-73
2021/06/20 09:56:11;;;;;;;22.02;6.68;;;;;;;25.01;66.21;95863.94;5100190;28;20044;-72
2021/06/20 09:58:42;;;;;;;21.10;6.60;;;;;;;25.17;64.88;95856.78;5118728;28;20048;-72
2021/06/20 10:01:09;;;;;;;21.95;6.70;;;;;;;25.16;66.58;95849.03;5118923;28;20044;-73
2021/06/20 10:03:36;;;;;;;20.42;6.38;;;;;;;25.28;65.22;95852.50;5119575;28;20039;-74
2021/06/20 10:06:01;;;;;;;22.92;7.40;;;;;;;25.28;66.01;95849.81;5119929;28;20050;-74
2021/06/20 10:08:27;;;;;;;27.38;7.00;;;;;;;25.39;65.48;95842.84;5119223;28;20044;-72
2021/06/20 10:10:53;;;;;;;20.10;6.63;;;;;;;25.29;65.06;95843.31;5118270;28;20100;-73
2021/06/20 10:13:20;;;;;;;23.83;6.63;;;;;;;25.46;64.91;95841.50;5119029;28;20047;-75
2021/06/20 10:15:48;;;;;;;20.15;6.60;;;;;;;25.01;64.25;95834.31;5119946;28;20039;-74
2021/06/20 10:18:17;;;;;;;18.17;6.50;;;;;;;25.22;65.54;95840.41;5101986;28;20044;-74
2021/06/20 10:20:46;;;;;;;19.05;6.32;;;;;;;25.26;65.04;95843.22;5121549;28;20047;-76
2021/06/20 10:23:23;;;;;;;20.60;6.88;;;;;;;25.38;64.29;95851.25;5119354;28;20114;-74
2021/06/20 10:25:50;;;;;;;22.67;5.78;;;;;;;25.44;64.42;95855.28;5119206;28;20028;-72
2021/06/20 10:28:19;;;;;;;21.55;6.30;;;;;;;25.49;63.36;95865.81;5101830;28;20039;-73
2021/06/20 10:30:47;;;;;;;18.60;6.43;;;;;;;25.46;62.11;95863.03;5120189;28;20439;-73
2021/06/20 10:33:14;;;;;;;21.20;5.50;;;;;;;25.63;61.44;95868.16;5120446;28;20328;-72
2021/06/20 10:35:41;;;;;;;;;;;;;;;25.95;60.95;95855.63;5120589;28;20077;-72
2021/06/20 10:38:07;;;;;;;19.48;5.40;;;;;;;25.89;62.69;95854.31;5122591;28;19941;-72
2021/06/20 10:40:37;;;;;;;17.08;4.90;;;;;;;25.85;61.17;95848.81;5112650;28;20031;-72
2021/06/20 10:43:15;;;;;;;16.73;5.28;;;;;;;25.98;60.27;95846.06;5130614;28;20047;-73
2021/06/20 10:45:41;;;;;;;19.92;5.10;;;;;;;26.04;58.97;95844.69;5108232;28;20077;-73
2021/06/20 10:48:17;;;;;;;17.25;4.40;;;;;;;26.28;57.38;95841.88;5104647;28;20052;-73
2021/06/20 10:50:48;;;;;;;26.10;7.55;;;;;;;25.81;58.42;95844.44;5101695;28;20050;-72
2021/06/20 10:53:14;;;;;;;20.60;6.55;;;;;;;25.99;59.67;95840.34;5101258;28;20448;-72
2021/06/20 10:55:42;;;;;;;21.77;5.65;;;;;;;26.24;58.60;95832.91;5119807;28;20122;-73
2021/06/20 10:58:16;;;;;;;20.65;5.43;;;;;;;25.97;58.09;95833.72;5120506;28;20040;-72
2021/06/20 11:00:42;;;;;;;16.92;5.07;;;;;;;26.12;56.51;95819.50;5119148;28;20495;-72
2021/06/20 11:03:10;;;;;;;18.70;4.65;;;;;;;26.02;54.77;95817.31;5118851;28;20039;-72
2021/06/20 11:05:49;;;;;;;20.33;4.97;;;;;;;26.22;54.53;95812.81;5119518;28;20503;-72
2021/06/20 11:08:34;;;;;;;19.75;7.90;;;;;;;26.65;52.86;95803.91;5118716;28;20128;-75
2021/06/20 11:11:24;;;;;;;17.60;4.60;;;;;;;26.94;52.15;95799.97;5119152;28;20115;-73
2021/06/20 11:14:02;;;;;;;23.25;5.88;;;;;;;26.63;53.65;95803.47;5114751;28;20059;-73
2021/06/20 11:16:30;;;;;;;19.17;4.97;;;;;;;26.25;53.80;95804.03;5120741;28;20050;-73
2021/06/20 11:19:08;;;;;;;22.58;5.30;;;;;;;26.58;53.32;95792.94;5121431;28;20058;-73
2021/06/20 11:21:37;;;;;;;22.08;6.45;;;;;;;26.77;53.91;95790.31;5120751;28;20036;-73
2021/06/20 11:24:03;;;;;;;27.02;8.05;;;;;;;27.18;51.20;95782.81;5119425;28;20163;-74
2021/06/20 11:26:29;;;;;;;19.10;4.97;;;;;;;27.32;50.92;95783.09;5100395;28;20049;-74